Time;durP1;ratioP1;P1;durP2;ratioP2;P2;SDS_P1;SDS_P2;PMS_P1;PMS_P2;Temp;Humidity;BMP_temperature;BMP_pressure;BME280_temperature;BME280_humidity;BME280_pressure;Samples;Min_cycle;Max_cycle;Signal;HPM_P1;HPM_P2
2021/05/31 00:00:57;;;;;;;4.97;3.83;;;13.20;39.90;;;;;;6159396;23;20205;-87
2021/05/31 00:03:23;;;;;;;5.73;4.07;;;13.10;39.90;;;;;;6160092;23;20779;-87
2021/05/31 00:05:49;;;;;;;4.20;3.80;;;13.30;40.10;;;;;;6159699;23;20171;-86
2021/05/31 00:08:14;;;;;;;4.60;3.97;;;13.00;40.00;;;;;;6159806;23;20148;-87
2021/05/31 00:10:40;;;;;;;4.50;3.60;;;13.10;40.10;;;;;;6159460;23;20171;-87
2021/05/31 00:13:06;;;;;;;3.77;3.47;;;13.00;39.90;;;;;;6159412;23;20151;-87
2021/05/31 00:15:32;;;;;;;3.73;3.33;;;13.00;39.90;;;;;;6185079;23;20139;-87
2021/05/31 00:17:58;;;;;;;3.80;3.30;;;12.90;39.80;;;;;;6160094;23;20182;-88
2021/05/31 00:20:24;;;;;;;4.25;3.38;;;12.70;39.80;;;;;;6161662;23;20147;-88
2021/05/31 00:22:50;;;;;;;3.80;3.50;;;12.80;40.00;;;;;;6162950;23;20175;-87
2021/05/31 00:25:16;;;;;;;5.20;3.30;;;12.60;40.10;;;;;;6187647;23;20142;-87
2021/05/31 00:27:43;;;;;;;4.10;3.70;;;12.60;41.00;;;;;;6161474;23;20147;-88
2021/05/31 00:30:11;;;;;;;5.20;3.58;;;12.70;41.20;;;;;;6161364;23;20143;-87
2021/05/31 00:32:37;;;;;;;4.13;3.45;;;12.60;41.20;;;;;;6161213;23;20147;-87
2021/05/31 00:35:05;;;;;;;3.50;3.20;;;12.40;41.00;;;;;;6161179;23;20206;-87
2021/05/31 00:37:31;;;;;;;3.72;3.42;;;12.40;41.10;;;;;;6161043;23;20476;-86
2021/05/31 00:39:57;;;;;;;5.43;4.33;;;12.20;40.90;;;;;;6161242;23;20147;-87
2021/05/31 00:42:22;;;;;;;3.77;3.47;;;12.30;41.60;;;;;;6187359;23;20127;-87
2021/05/31 00:44:48;;;;;;;4.43;3.60;;;12.20;41.80;;;;;;6160992;23;20147;-86
2021/05/31 00:47:17;;;;;;;5.00;3.87;;;12.40;42.50;;;;;;6161045;23;20382;-88
2021/05/31 00:49:42;;;;;;;4.25;3.85;;;12.40;42.90;;;;;;6187036;23;20185;-87
2021/05/31 00:52:09;;;;;;;4.73;4.20;;;12.10;43.30;;;;;;6160898;23;20151;-87
2021/05/31 00:54:35;;;;;;;4.75;3.65;;;12.10;43.90;;;;;;6160980;23;20387;-88
2021/05/31 00:57:03;;;;;;;4.35;3.80;;;12.00;44.20;;;;;;6160869;23;20146;-88
2021/05/31 00:59:29;;;;;;;4.28;3.85;;;12.00;44.10;;;;;;6208816;23;20193;-87
2021/05/31 01:01:56;;;;;;;4.68;4.28;;;12.00;44.40;;;;;;6215031;23;20155;-88
2021/05/31 01:04:22;;;;;;;4.70;3.95;;;12.10;45.00;;;;;;6215794;23;20210;-88
2021/05/31 01:07:11;;;;;;;3.63;3.30;;;12.00;44.50;;;;;;6215932;23;20162;-87
2021/05/31 01:10:05;;;;;;;3.80;3.35;;;12.00;43.10;;;;;;6214928;23;20203;-88
2021/05/31 01:12:40;;;;;;;6.22;4.32;;;11.90;43.00;;;;;;6215440;23;20162;-90
2021/05/31 01:15:12;;;;;;;3.67;3.38;;;11.70;43.00;;;;;;6215738;23;20162;-87
2021/05/31 01:18:01;;;;;;;4.47;3.40;;;11.70;42.60;;;;;;6215489;23;20233;-89
2021/05/31 01:20:52;;;;;;;4.07;3.42;;;11.80;42.50;;;;;;6215603;23;20185;-88
2021/05/31 01:23:20;;;;;;;5.20;3.78;;;11.70;42.30;;;;;;6215106;23;20178;-88
2021/05/31 01:25:58;;;;;;;6.88;3.70;;;11.50;42.60;;;;;;6215870;23;20533;-87
2021/05/31 01:28:48;;;;;;;5.05;4.00;;;11.80;43.50;;;;;;6217264;23;20468;-88
2021/05/31 01:31:19;;;;;;;4.90;3.80;;;12.00;44.30;;;;;;6215245;23;20777;-88
2021/05/31 01:33:49;;;;;;;4.55;3.63;;;11.60;43.90;;;;;;6215409;23;20554;-88
2021/05/31 01:36:15;;;;;;;3.97;3.67;;;11.50;44.20;;;;;;6215177;23;20153;-87
2021/05/31 01:38:42;;;;;;;4.85;3.70;;;11.30;45.30;;;;;;6215483;23;20490;-88
2021/05/31 01:41:10;;;;;;;5.28;3.50;;;11.20;45.20;;;;;;6215530;23;20150;-88
2021/05/31 01:43:38;;;;;;;5.00;4.00;;;11.50;45.30;;;;;;6215380;23;20178;-88
2021/05/31 01:46:04;;;;;;;4.25;3.75;;;11.60;44.40;;;;;;6215533;23;20480;-88
2021/05/31 01:48:30;;;;;;;4.30;3.47;;;11.10;43.50;;;;;;6215451;23;20196;-88
2021/05/31 01:50:58;;;;;;;3.80;3.40;;;11.30;43.60;;;;;;6214582;23;20158;-88
2021/05/31 01:53:25;;;;;;;4.93;4.28;;;11.40;43.90;;;;;;6214620;23;20473;-88
2021/05/31 01:55:51;;;;;;;5.55;3.80;;;11.20;45.00;;;;;;6216691;23;20189;-88
2021/05/31 01:58:17;;;;;;;5.43;4.10;;;11.10;44.90;;;;;;6215233;23;20198;-88
2021/05/31 02:00:43;;;;;;;6.22;4.63;;;10.80;45.40;;;;;;6214751;23;20388;-88
2021/05/31 02:03:10;;;;;;;4.82;3.95;;;11.20;46.40;;;;;;6214983;23;20173;-88
2021/05/31 02:05:36;;;;;;;4.47;3.78;;;10.80;46.30;;;;;;6214777;23;20196;-88
2021/05/31 02:08:02;;;;;;;5.50;4.30;;;11.10;46.40;;;;;;6214677;23;20151;-88
2021/05/31 02:10:28;;;;;;;4.82;3.83;;;11.10;46.50;;;;;;6214703;23;20408;-88
2021/05/31 02:13:03;;;;;;;4.63;3.63;;;10.70;45.40;;;;;;6214692;23;20150;-88
2021/05/31 02:15:41;;;;;;;4.97;3.67;;;10.90;44.70;;;;;;6214747;23;20782;-88
2021/05/31 02:18:28;;;;;;;3.53;2.80;;;11.00;44.40;;;;;;6214796;23;20154;-88
2021/05/31 02:21:15;;;;;;;3.70;3.40;;;11.30;44.50;;;;;;6214382;23;20173;-88
2021/05/31 02:23:42;;;;;;;3.75;3.45;;;10.90;43.90;;;;;;6214234;23;20209;-88
2021/05/31 02:26:15;;;;;;;4.95;4.55;;;10.80;44.00;;;;;;6214739;23;20597;-88
2021/05/31 02:28:43;;;;;;;6.45;4.28;;;10.80;44.80;;;;;;6214635;23;20147;-88
2021/05/31 02:31:09;;;;;;;3.75;3.45;;;10.80;44.80;;;;;;6214579;23;20142;-88
2021/05/31 02:33:36;;;;;;;5.47;3.40;;;10.70;44.90;;;;;;6214397;23;20241;-88
2021/05/31 02:36:02;;;;;;;4.35;3.67;;;10.70;44.70;;;;;;6214730;23;20369;-88
2021/05/31 02:38:28;;;;;;;3.92;3.55;;;10.80;44.60;;;;;;6215943;23;20154;-86
2021/05/31 02:40:56;;;;;;;6.33;3.53;;;10.50;44.40;;;;;;6214561;23;20474;-88
2021/05/31 02:43:22;;;;;;;4.85;4.35;;;10.90;44.70;;;;;;6214642;23;20636;-88
2021/05/31 02:45:48;;;;;;;3.80;3.47;;;10.70;44.50;;;;;;6215053;23;20143;-88
2021/05/31 02:48:13;;;;;;;4.77;4.03;;;10.70;44.30;;;;;;6214417;23;20151;-88
2021/05/31 02:50:39;;;;;;;3.90;3.60;;;10.90;44.70;;;;;;6214507;23;20233;-89
2021/05/31 02:53:05;;;;;;;3.97;3.67;;;10.60;44.30;;;;;;6214852;23;20146;-88
2021/05/31 02:55:32;;;;;;;3.60;3.30;;;10.60;44.60;;;;;;6214692;23;20150;-88
2021/05/31 02:58:00;;;;;;;4.05;3.65;;;10.50;44.40;;;;;;6213850;23;20201;-88
2021/05/31 03:00:28;;;;;;;3.55;3.25;;;10.50;44.20;;;;;;6214463;23;20292;-88
2021/05/31 03:02:55;;;;;;;4.35;3.95;;;10.30;44.30;;;;;;6214613;23;20185;-89
2021/05/31 03:05:23;;;;;;;4.15;3.33;;;10.40;44.80;;;;;;6216174;23;20138;-88
2021/05/31 03:07:51;;;;;;;3.72;3.30;;;10.40;44.40;;;;;;6214329;23;20150;-88
2021/05/31 03:10:16;;;;;;;3.55;3.20;;;10.50;44.40;;;;;;6214269;23;20188;-89
2021/05/31 03:12:44;;;;;;;3.83;3.03;;;10.50;44.30;;;;;;6216038;23;20457;-88
2021/05/31 03:15:12;;;;;;;3.58;3.28;;;10.20;44.50;;;;;;6214349;23;20535;-88
2021/05/31 03:17:38;;;;;;;3.97;3.55;;;10.00;44.20;;;;;;6214443;23;20150;-88
2021/05/31 03:20:05;;;;;;;4.23;3.80;;;10.20;44.40;;;;;;6216095;23;20144;-88
2021/05/31 03:22:32;;;;;;;4.35;3.20;;;10.30;44.50;;;;;;6214634;23;20181;-88
2021/05/31 03:24:57;;;;;;;4.30;3.90;;;10.20;45.00;;;;;;6214889;23;20192;-89
2021/05/31 03:27:23;;;;;;;7.50;3.20;;;10.20;45.10;;;;;;6214783;23;20221;-89
2021/05/31 03:29:49;;;;;;;5.60;5.10;;;10.20;45.20;;;;;;6214786;23;20143;-88
2021/05/31 03:32:14;;;;;;;4.10;3.77;;;9.90;45.70;;;;;;6214852;23;20266;-87
2021/05/31 03:34:40;;;;;;;3.90;3.60;;;9.70;45.90;;;;;;6214270;23;20567;-89
2021/05/31 03:37:06;;;;;;;4.17;3.50;;;9.60;45.80;;;;;;6214199;23;20153;-89
2021/05/31 03:39:32;;;;;;;3.60;3.30;;;10.00;44.90;;;;;;6214767;23;20151;-90
2021/05/31 03:41:57;;;;;;;3.80;3.50;;;9.90;45.40;;;;;;6214975;23;20388;-90
2021/05/31 03:44:23;;;;;;;7.10;4.10;;;10.00;44.50;;;;;;6214340;23;20182;-89
2021/05/31 03:46:49;;;;;;;3.60;3.30;;;9.90;45.60;;;;;;6214600;23;20385;-89
2021/05/31 03:49:14;;;;;;;3.80;3.50;;;9.90;45.60;;;;;;6214565;23;20225;-89
2021/05/31 03:51:40;;;;;;;5.13;3.53;;;9.90;45.60;;;;;;6214446;23;20481;-90
2021/05/31 03:54:06;;;;;;;3.90;2.90;;;10.00;44.60;;;;;;6216261;23;20241;-90
2021/05/31 03:56:32;;;;;;;3.83;3.40;;;9.90;45.20;;;;;;6216710;23;20208;-88
2021/05/31 03:58:58;;;;;;;3.63;3.27;;;9.90;45.20;;;;;;6216337;23;20328;-89
2021/05/31 04:01:24;;;;;;;3.40;3.10;;;10.00;44.20;;;;;;6216232;23;20200;-88
2021/05/31 04:03:51;;;;;;;3.83;3.50;;;10.00;44.40;;;;;;6217753;23;20491;-87
2021/05/31 04:11:34;;;;;;;3.47;3.15;;;9.90;45.40;;;;;;6218387;23;20142;-90
2021/05/31 04:14:20;;;;;;;3.50;3.20;;;9.80;45.30;;;;;;6216494;23;20189;-88
2021/05/31 04:16:49;;;;;;;3.20;2.90;;;10.00;44.50;;;;;;6216130;23;20667;-88
2021/05/31 04:19:16;;;;;;;3.45;3.15;;;9.90;45.30;;;;;;6217159;23;20150;-88
2021/05/31 04:21:45;;;;;;;6.55;2.90;;;9.80;45.40;;;;;;6216643;23;20173;-90
2021/05/31 04:24:12;;;;;;;3.45;3.15;;;9.90;45.20;;;;;;6216699;23;20498;-89
2021/05/31 04:26:38;;;;;;;4.90;3.25;;;10.10;44.70;;;;;;6216819;23;20146;-89
2021/05/31 04:29:06;;;;;;;4.05;3.60;;;10.10;45.50;;;;;;6217003;23;20150;-89
2021/05/31 04:31:33;;;;;;;3.90;3.50;;;10.00;45.40;;;;;;6216351;23;20192;-89
2021/05/31 04:33:59;;;;;;;3.78;2.60;;;9.90;46.00;;;;;;6216431;23;20182;-88
2021/05/31 04:36:25;;;;;;;19.23;4.60;;;9.90;45.80;;;;;;6216273;23;20153;-88
2021/05/31 04:38:50;;;;;;;3.70;3.40;;;9.80;46.20;;;;;;6216064;23;20373;-89
2021/05/31 04:41:16;;;;;;;3.90;3.50;;;9.90;46.40;;;;;;6215752;23;20489;-89
2021/05/31 04:43:42;;;;;;;3.40;3.10;;;9.90;46.40;;;;;;6215318;23;20170;-89
2021/05/31 04:46:08;;;;;;;5.18;3.85;;;9.60;45.90;;;;;;6215944;23;20143;-90
2021/05/31 04:48:34;;;;;;;3.80;3.50;;;10.40;45.30;;;;;;6216078;23;20143;-89
2021/05/31 04:51:02;;;;;;;4.27;3.20;;;10.10;44.90;;;;;;6215969;23;20234;-89
2021/05/31 04:53:32;;;;;;;3.63;3.33;;;9.90;45.90;;;;;;6215579;23;20143;-89
2021/05/31 04:56:01;;;;;;;3.30;2.78;;;10.00;45.80;;;;;;6216116;23;20185;-91
2021/05/31 04:58:26;;;;;;;3.55;2.90;;;9.90;46.80;;;;;;6215503;23;20699;-91
2021/05/31 05:00:54;;;;;;;3.53;3.20;;;10.10;46.20;;;;;;6215557;23;20155;-91
2021/05/31 05:03:20;;;;;;;3.85;3.20;;;10.30;45.60;;;;;;6216263;23;20182;-90
2021/05/31 05:05:49;;;;;;;2.60;2.40;;;10.00;44.70;;;;;;6217569;23;20142;-91
2021/05/31 05:08:15;;;;;;;5.35;3.42;;;10.30;44.60;;;;;;6217331;23;20146;-92
2021/05/31 05:10:41;;;;;;;3.95;3.55;;;10.50;44.40;;;;;;6216151;23;20146;-91
2021/05/31 05:13:07;;;;;;;3.50;3.20;;;10.70;43.90;;;;;;6219434;23;20154;-94
2021/05/31 05:15:34;;;;;;;2.85;2.65;;;10.70;43.60;;;;;;6219256;23;20180;-92
2021/05/31 05:18:01;;;;;;;4.25;3.20;;;11.30;44.00;;;;;;6217679;23;20466;-94
2021/05/31 05:20:31;;;;;;;3.20;2.90;;;11.80;43.30;;;;;;6217685;23;20178;-92
2021/05/31 05:22:57;;;;;;;3.20;2.90;;;12.20;40.90;;;;;;6217459;23;20432;-92
2021/05/31 05:25:32;;;;;;;4.97;3.10;;;13.00;37.50;;;;;;6217747;23;20380;-94
2021/05/31 05:27:58;;;;;;;4.07;2.90;;;13.80;35.00;;;;;;6216818;23;20436;-92
2021/05/31 05:30:28;;;;;;;3.47;2.33;;;14.60;34.80;;;;;;6216783;23;20405;-92
2021/05/31 05:33:00;;;;;;;6.73;3.50;;;15.40;33.10;;;;;;6217668;23;20154;-91
2021/05/31 05:48:31;;;;;;;4.17;3.50;;;18.70;25.60;;;;;;6228608;23;20358;-89
2021/05/31 05:51:05;;;;;;;4.00;3.60;;;19.50;25.00;;;;;;6215746;23;20659;-91
2021/05/31 05:53:32;;;;;;;3.30;3.10;;;20.00;23.80;;;;;;6216575;23;20386;-92
2021/05/31 05:56:00;;;;;;;4.83;4.17;;;20.50;23.70;;;;;;6215810;23;20384;-91
2021/05/31 05:58:29;;;;;;;3.27;2.83;;;21.20;23.40;;;;;;6214902;23;20477;-91
2021/05/31 06:00:55;;;;;;;3.33;3.03;;;21.90;22.00;;;;;;6215703;23;20437;-92
2021/05/31 06:03:21;;;;;;;3.57;3.27;;;22.60;21.00;;;;;;6216002;23;20396;-89
2021/05/31 06:05:47;;;;;;;3.47;3.10;;;23.10;19.40;;;;;;6216304;23;20408;-90
2021/05/31 06:08:13;;;;;;;3.80;3.50;;;23.20;19.90;;;;;;6216452;23;20148;-90
2021/05/31 06:10:38;;;;;;;3.53;3.23;;;23.60;19.70;;;;;;6216529;23;20150;-89
2021/05/31 06:13:10;;;;;;;4.80;3.43;;;24.10;19.40;;;;;;6217692;23;20373;-90
2021/05/31 06:15:36;;;;;;;3.03;2.80;;;24.80;18.70;;;;;;6217095;23;20372;-91
2021/05/31 06:18:03;;;;;;;3.37;3.07;;;25.30;17.80;;;;;;6220484;23;20396;-91
2021/05/31 06:20:29;;;;;;;4.47;3.07;;;25.80;17.00;;;;;;6217686;23;20381;-90
2021/05/31 06:23:08;;;;;;;3.87;3.10;;;26.10;16.80;;;;;;6216191;23;20751;-90
2021/05/31 06:25:34;;;;;;;8.07;3.77;;;26.40;17.10;;;;;;6216018;23;20410;-89
2021/05/31 06:28:04;;;;;;;4.20;3.60;;;26.70;16.30;;;;;;6216401;23;20409;-92
2021/05/31 06:30:30;;;;;;;5.73;3.00;;;26.80;16.80;;;;;;6217116;23;20462;-92
2021/05/31 06:32:58;;;;;;;3.97;3.30;;;27.10;16.90;;;;;;6217880;23;20398;-91
2021/05/31 06:35:25;;;;;;;4.13;3.20;;;27.50;16.10;;;;;;6218507;23;20873;-89
2021/05/31 07:34:19;;;;;;;2.50;2.30;;;29.80;13.10;;;;;;6201193;23;20446;-90
2021/05/31 07:36:44;;;;;;;2.30;2.10;;;29.80;13.10;;;;;;6188211;23;20355;-90
2021/05/31 07:39:10;;;;;;;2.70;2.50;;;29.80;12.60;;;;;;6161794;23;20462;-90
2021/05/31 07:41:37;;;;;;;2.50;2.30;;;29.60;12.70;;;;;;6162689;23;20155;-89
2021/05/31 07:44:03;;;;;;;3.10;2.03;;;29.60;13.30;;;;;;6162561;23;20182;-90
2021/05/31 07:46:29;;;;;;;2.67;2.47;;;29.50;13.30;;;;;;6160565;23;20378;-90
2021/05/31 07:48:55;;;;;;;2.70;2.13;;;29.40;12.90;;;;;;6160774;23;20375;-90
2021/05/31 07:51:21;;;;;;;2.70;2.27;;;29.20;13.10;;;;;;6161770;23;20250;-89
2021/05/31 07:53:53;;;;;;;4.93;2.27;;;28.90;12.60;;;;;;6161789;23;20846;-90
2021/05/31 07:56:19;;;;;;;2.73;2.13;;;28.20;14.00;;;;;;6161881;23;20389;-89
2021/05/31 07:58:46;;;;;;;2.90;2.70;;;27.50;15.50;;;;;;6162599;23;20449;-90
2021/05/31 08:01:12;;;;;;;3.00;2.80;;;26.90;15.20;;;;;;6162279;23;20358;-90
2021/05/31 08:03:43;;;;;;;2.77;2.57;;;26.60;16.30;;;;;;6163501;23;20420;-91
2021/05/31 08:06:10;;;;;;;3.10;2.90;;;26.10;17.00;;;;;;6162867;23;20353;-92
2021/05/31 08:11:58;;;;;;;3.10;2.43;;;25.10;18.20;;;;;;6201547;23;20345;-89
2021/05/31 08:14:25;;;;;;;3.07;2.53;;;24.50;18.90;;;;;;6165992;23;20356;-90
2021/05/31 08:16:53;;;;;;;2.73;2.53;;;24.00;19.20;;;;;;6167671;23;20353;-87
2021/05/31 08:19:25;;;;;;;2.80;2.50;;;23.50;18.60;;;;;;6165534;23;20428;-88
2021/05/31 08:22:32;;;;;;;2.97;2.60;;;23.10;19.40;;;;;;6163356;23;20364;-88
2021/05/31 08:24:59;;;;;;;2.50;2.30;;;22.80;19.70;;;;;;6162603;23;20400;-87
2021/05/31 08:30:47;;;;;;;4.07;2.30;;;22.60;19.10;;;;;;6190404;23;20329;-89
2021/05/31 08:33:12;;;;;;;2.23;2.07;;;22.60;18.40;;;;;;6168887;23;20829;-87
2021/05/31 08:35:40;;;;;;;3.33;2.30;;;22.50;19.50;;;;;;6192205;23;20390;-90
2021/05/31 08:38:13;;;;;;;6.23;2.80;;;22.10;19.60;;;;;;6192166;23;20150;-88
2021/05/31 08:40:39;;;;;;;2.20;2.10;;;21.80;20.20;;;;;;6219624;23;20368;-89
2021/05/31 08:43:07;;;;;;;2.47;2.27;;;21.90;20.60;;;;;;6193495;23;20391;-89
2021/05/31 08:45:36;;;;;;;2.67;2.47;;;22.00;20.30;;;;;;6193204;23;20463;-90
2021/05/31 08:48:08;;;;;;;2.90;2.07;;;22.00;20.80;;;;;;6193132;23;20708;-89
2021/05/31 08:50:34;;;;;;;2.63;2.43;;;22.00;19.70;;;;;;6193234;23;20423;-87
2021/05/31 08:53:09;;;;;;;3.00;2.40;;;21.70;19.10;;;;;;6192853;23;20399;-89
2021/05/31 08:55:35;;;;;;;4.43;2.10;;;21.30;19.60;;;;;;6193861;23;20362;-89
2021/05/31 08:58:05;;;;;;;3.60;2.10;;;20.90;21.10;;;;;;6194220;23;20724;-88
2021/05/31 09:00:36;;;;;;;2.10;2.00;;;21.10;20.30;;;;;;6194361;23;20855;-89
2021/05/31 09:06:33;;;;;;;3.67;2.13;;;21.00;18.50;;;;;;6220556;23;20341;-90
2021/05/31 09:09:00;;;;;;;3.40;2.03;;;21.20;19.70;;;;;;6193822;23;20348;-88
2021/05/31 09:11:29;;;;;;;2.60;2.40;;;21.10;19.10;;;;;;6194183;23;20386;-91
2021/05/31 09:13:56;;;;;;;2.63;2.43;;;21.20;19.40;;;;;;6194444;23;20389;-90
2021/05/31 09:16:53;;;;;;;2.40;2.23;;;21.40;19.10;;;;;;6193633;23;20384;-90
2021/05/31 09:19:18;;;;;;;5.53;2.30;;;21.20;18.20;;;;;;6193087;23;20412;-90
2021/05/31 09:21:44;;;;;;;3.63;2.70;;;20.90;19.40;;;;;;6193287;23;20381;-91
2021/05/31 09:27:18;;;;;;;4.10;2.20;;;20.80;19.60;;;;;;6219196;23;20143;-90
2021/05/31 09:29:57;;;;;;;2.20;2.10;;;20.90;19.40;;;;;;6193496;23;20757;-88
2021/05/31 09:32:23;;;;;;;2.70;2.50;;;20.90;20.00;;;;;;6192609;23;20389;-89
2021/05/31 09:34:57;;;;;;;4.03;2.47;;;21.30;20.30;;;;;;6168368;23;20409;-88
2021/05/31 09:37:47;;;;;;;2.80;2.37;;;21.40;19.20;;;;;;6162805;23;20158;-89
2021/05/31 09:40:16;;;;;;;3.17;2.30;;;21.20;20.10;;;;;;6162713;23;20413;-88
2021/05/31 09:43:20;;;;;;;2.50;2.30;;;21.20;20.80;;;;;;6161048;23;20420;-89
2021/05/31 09:45:49;;;;;;;3.80;3.00;;;21.10;21.10;;;;;;6163587;23;20406;-91
2021/05/31 09:48:15;;;;;;;4.40;2.90;;;21.10;19.90;;;;;;6164289;23;20378;-88
2021/05/31 09:51:13;;;;;;;2.73;2.33;;;21.20;20.60;;;;;;6164604;23;20370;-91
2021/05/31 09:53:40;;;;;;;2.20;2.10;;;20.90;20.30;;;;;;6163990;23;20496;-90
2021/05/31 09:56:22;;;;;;;2.50;2.30;;;21.00;21.80;;;;;;6164322;23;20375;-91
2021/05/31 09:59:02;;;;;;;2.80;2.33;;;21.20;19.50;;;;;;6164864;23;20386;-92
2021/05/31 10:01:36;;;;;;;2.20;2.00;;;21.00;19.80;;;;;;6165322;23;20388;-92
2021/05/31 10:10:10;;;;;;;2.30;2.10;;;21.20;20.30;;;;;;6191279;23;20869;-90
2021/05/31 10:13:15;;;;;;;2.50;2.30;;;20.80;20.10;;;;;;6165372;23;20390;-91
2021/05/31 10:15:41;;;;;;;3.00;2.50;;;20.90;20.40;;;;;;6167535;23;20426;-91
2021/05/31 10:31:44;;;;;;;3.50;2.00;;;21.70;19.70;;;;;;6197391;23;20346;-92
2021/05/31 10:34:46;;;;;;;3.50;2.37;;;21.90;19.60;;;;;;6159046;23;20450;-91
2021/05/31 10:37:29;;;;;;;2.43;2.23;;;21.90;19.30;;;;;;6189930;23;20843;-91
2021/05/31 10:40:33;;;;;;;2.47;2.27;;;21.80;19.00;;;;;;6165482;23;20376;-91
2021/05/31 10:43:14;;;;;;;3.70;3.13;;;21.80;19.00;;;;;;6163788;23;20426;-91
2021/05/31 10:45:42;;;;;;;2.37;2.17;;;21.80;19.10;;;;;;6162402;23;20383;-85
2021/05/31 10:51:45;;;;;;;2.80;2.37;;;21.90;18.50;;;;;;6191136;23;20346;-92
2021/05/31 10:54:15;;;;;;;3.60;2.73;;;22.00;19.20;;;;;;6168611;23;20481;-91
2021/05/31 11:00:03;;;;;;;2.60;2.40;;;22.30;18.30;;;;;;6192350;23;20342;-92
2021/05/31 11:02:30;;;;;;;3.00;2.50;;;22.20;19.30;;;;;;6166882;23;20409;-90
2021/05/31 11:08:46;;;;;;;3.53;2.73;;;22.00;19.90;;;;;;6014730;23;20436;-90
2021/05/31 11:11:38;;;;;;;3.23;2.37;;;21.90;19.10;;;;;;5992241;23;20376;-90
2021/05/31 11:14:06;;;;;;;4.57;2.57;;;22.00;19.90;;;;;;6022156;23;20384;-90
2021/05/31 11:19:53;;;;;;;2.87;2.67;;;22.10;19.90;;;;;;6018144;23;20435;-90
2021/05/31 11:25:40;;;;;;;3.43;2.50;;;22.40;19.90;;;;;;6012926;23;20931;-91
2021/05/31 11:35:15;;;;;;;2.10;2.00;;;22.60;19.50;;;;;;6194072;23;21141;-93
2021/05/31 11:38:24;;;;;;;3.40;3.10;;;22.70;19.60;;;;;;6217746;23;20397;-92
2021/05/31 11:40:50;;;;;;;3.93;2.80;;;23.00;18.90;;;;;;6218057;23;20356;-91
2021/05/31 11:49:44;;;;;;;2.50;2.30;;;22.90;19.60;;;;;;6220471;23;20333;-91
2021/05/31 11:52:27;;;;;;;2.80;2.60;;;22.80;19.70;;;;;;6217204;23;20856;-91
2021/05/31 11:54:53;;;;;;;9.17;3.60;;;23.00;19.30;;;;;;6217972;23;20173;-92
2021/05/31 11:57:39;;;;;;;3.10;2.43;;;23.10;19.80;;;;;;6218313;23;20905;-92
2021/05/31 12:00:06;;;;;;;2.90;2.70;;;23.20;19.10;;;;;;6218339;23;20388;-92
2021/05/31 12:02:39;;;;;;;4.47;2.60;;;23.10;19.10;;;;;;6224106;23;20456;-89
2021/05/31 12:05:38;;;;;;;2.70;2.50;;;23.10;19.60;;;;;;6218377;23;20373;-88
2021/05/31 12:08:31;;;;;;;2.80;2.60;;;23.20;19.00;;;;;;6048719;23;20430;-89
2021/05/31 12:11:27;;;;;;;3.60;3.27;;;23.40;19.00;;;;;;6105810;23;20467;-89
2021/05/31 12:14:01;;;;;;;4.30;2.53;;;23.40;18.00;;;;;;6221020;23;20381;-88
2021/05/31 12:16:35;;;;;;;3.30;2.70;;;23.40;17.80;;;;;;6225631;23;20433;-88
2021/05/31 12:19:01;;;;;;;3.07;2.87;;;23.30;19.00;;;;;;6225854;23;20377;-90
2021/05/31 12:21:27;;;;;;;6.87;3.23;;;23.40;18.70;;;;;;6227067;23;20382;-91
2021/05/31 12:23:53;;;;;;;2.80;2.60;;;23.40;18.50;;;;;;6223152;23;20208;-90
2021/05/31 12:26:23;;;;;;;2.27;2.07;;;23.60;18.20;;;;;;6226389;23;20352;-90
2021/05/31 12:28:52;;;;;;;5.40;2.47;;;23.60;18.50;;;;;;6232096;23;20147;-90
2021/05/31 12:34:41;;;;;;;2.30;2.10;;;23.40;18.40;;;;;;6234921;23;20817;-91
2021/05/31 12:37:12;;;;;;;3.23;2.80;;;23.30;18.30;;;;;;6233667;23;20418;-90
2021/05/31 12:39:45;;;;;;;2.80;2.20;;;23.30;18.60;;;;;;6231503;23;20435;-90
2021/05/31 12:42:28;;;;;;;3.00;2.40;;;23.20;18.20;;;;;;6227887;23;20713;-89
2021/05/31 12:45:51;;;;;;;8.87;3.03;;;23.40;19.00;;;;;;6229189;23;20435;-89
2021/05/31 12:48:21;;;;;;;2.83;2.50;;;23.40;18.80;;;;;;6227704;23;20443;-90
2021/05/31 12:50:52;;;;;;;3.40;2.87;;;23.40;18.30;;;;;;6230258;23;20456;-89
2021/05/31 12:53:19;;;;;;;3.50;2.93;;;23.30;17.90;;;;;;6229128;23;20366;-91
2021/05/31 12:56:13;;;;;;;5.00;2.37;;;23.30;18.00;;;;;;6226768;23;20423;-92
2021/05/31 12:58:39;;;;;;;3.40;2.20;;;23.40;18.90;;;;;;6219601;23;20374;-93
2021/05/31 13:01:05;;;;;;;7.07;2.63;;;23.70;18.50;;;;;;6226227;23;20158;-94
2021/05/31 13:06:52;;;;;;;3.10;2.60;;;23.70;18.80;;;;;;6227107;23;20361;-91
2021/05/31 13:09:25;;;;;;;3.13;2.93;;;23.70;18.20;;;;;;6222819;23;20508;-91
2021/05/31 13:11:53;;;;;;;2.37;2.17;;;23.70;18.10;;;;;;6223995;23;20221;-92
2021/05/31 13:14:56;;;;;;;2.63;2.27;;;23.70;18.80;;;;;;6221164;23;20372;-91
2021/05/31 13:17:28;;;;;;;3.03;2.83;;;23.60;19.20;;;;;;6219312;23;20373;-91
2021/05/31 13:23:29;;;;;;;3.07;2.77;;;23.90;18.10;;;;;;6220246;23;20776;-92
2021/05/31 13:26:17;;;;;;;3.17;2.90;;;23.90;17.90;;;;;;6218912;23;20363;-93
2021/05/31 13:28:44;;;;;;;2.50;2.30;;;23.90;18.50;;;;;;6218736;23;20401;-91
2021/05/31 13:31:15;;;;;;;3.90;2.63;;;23.90;18.60;;;;;;6219358;23;20434;-92
2021/05/31 13:33:50;;;;;;;2.83;2.50;;;23.90;18.80;;;;;;6218901;23;20377;-92
2021/05/31 13:36:21;;;;;;;3.03;2.60;;;23.90;19.00;;;;;;6216764;23;20441;-91
2021/05/31 13:42:35;;;;;;;2.50;2.23;;;24.10;18.30;;;;;;6220027;23;20333;-93
2021/05/31 13:45:05;;;;;;;2.10;2.00;;;24.20;19.00;;;;;;6219184;23;20392;-93
2021/05/31 13:47:33;;;;;;;3.20;3.00;;;24.10;18.80;;;;;;6232393;23;20376;-92
2021/05/31 13:53:21;;;;;;;4.97;2.57;;;24.40;18.20;;;;;;6230434;23;20348;-92
2021/05/31 14:02:30;;;;;;;5.13;2.70;;;24.70;18.20;;;;;;6230528;23;20339;-94
2021/05/31 14:04:56;;;;;;;5.33;3.23;;;25.00;18.00;;;;;;6227136;23;20479;-94
2021/05/31 14:07:22;;;;;;;3.80;2.53;;;24.80;17.00;;;;;;6222601;23;20431;-92
2021/05/31 14:09:48;;;;;;;3.33;2.27;;;24.70;17.80;;;;;;6222975;23;20150;-91
2021/05/31 14:12:14;;;;;;;3.27;2.93;;;24.80;17.10;;;;;;6222868;23;20366;-90
2021/05/31 14:15:29;;;;;;;4.20;2.83;;;24.60;17.60;;;;;;6220719;23;20154;-90
2021/05/31 14:17:55;;;;;;;2.30;2.20;;;24.30;18.50;;;;;;6216664;23;20161;-90
2021/05/31 14:20:23;;;;;;;2.67;2.47;;;24.20;18.50;;;;;;6216804;23;20671;-88
2021/05/31 14:22:53;;;;;;;2.40;2.27;;;24.30;18.90;;;;;;6217439;23;20349;-90
2021/05/31 14:25:35;;;;;;;3.67;2.67;;;24.40;17.40;;;;;;6218144;23;20382;-89
2021/05/31 14:28:02;;;;;;;2.40;2.20;;;24.50;18.60;;;;;;6219797;23;20407;-90
2021/05/31 14:30:29;;;;;;;3.00;2.80;;;24.80;18.30;;;;;;6220071;23;20368;-91
2021/05/31 14:33:01;;;;;;;3.00;2.70;;;24.80;18.40;;;;;;6222079;23;20391;-90
2021/05/31 14:35:49;;;;;;;2.27;2.17;;;24.90;18.50;;;;;;6219098;23;20811;-89
2021/05/31 14:38:15;;;;;;;3.17;2.17;;;25.00;17.30;;;;;;6162773;23;20365;-91
2021/05/31 14:40:47;;;;;;;2.47;2.27;;;24.90;18.00;;;;;;6163625;23;20355;-91
2021/05/31 14:43:13;;;;;;;2.50;2.30;;;24.80;17.80;;;;;;6164086;23;20171;-91
2021/05/31 14:46:10;;;;;;;2.67;2.47;;;24.80;17.40;;;;;;6167761;23;20353;-92
2021/05/31 14:48:36;;;;;;;4.20;2.37;;;24.70;18.10;;;;;;6169455;23;20370;-92
2021/05/31 14:51:29;;;;;;;2.43;2.33;;;24.70;18.50;;;;;;6167648;23;20372;-92
2021/05/31 14:53:54;;;;;;;3.03;2.83;;;24.60;18.90;;;;;;6162773;23;20364;-92
2021/05/31 14:56:38;;;;;;;3.73;2.47;;;24.70;18.90;;;;;;6164663;23;20435;-93
2021/05/31 14:59:03;;;;;;;3.17;2.87;;;24.80;18.70;;;;;;6164387;23;20585;-91
2021/05/31 15:01:29;;;;;;;3.17;2.87;;;24.70;17.50;;;;;;6163591;23;20373;-92
2021/05/31 15:04:23;;;;;;;3.30;2.47;;;24.70;17.90;;;;;;6162865;23;20688;-90
2021/05/31 15:06:49;;;;;;;2.93;2.10;;;24.60;17.80;;;;;;6187416;23;20148;-91
2021/05/31 15:09:34;;;;;;;3.03;2.57;;;24.80;18.10;;;;;;6161191;23;20345;-89
2021/05/31 15:12:03;;;;;;;2.97;2.20;;;25.00;18.20;;;;;;6160587;23;20217;-89
2021/05/31 15:14:41;;;;;;;2.80;2.60;;;25.10;17.80;;;;;;6160936;23;20832;-89
2021/05/31 15:17:08;;;;;;;2.67;2.47;;;25.10;17.80;;;;;;6161133;23;20357;-88
2021/05/31 15:19:53;;;;;;;2.70;2.30;;;25.20;18.00;;;;;;6160537;23;20883;-89
2021/05/31 15:22:18;;;;;;;3.30;2.67;;;25.40;17.50;;;;;;6160962;23;20441;-89
2021/05/31 15:24:44;;;;;;;2.93;2.73;;;25.40;16.60;;;;;;6161135;23;20860;-89
2021/05/31 15:28:02;;;;;;;2.73;2.53;;;25.40;17.50;;;;;;6161538;23;20171;-90
2021/05/31 15:30:28;;;;;;;4.37;2.80;;;25.40;16.80;;;;;;6163543;23;20408;-90
2021/05/31 15:33:14;;;;;;;3.50;2.37;;;25.30;17.10;;;;;;6161469;23;20370;-89
2021/05/31 15:35:40;;;;;;;2.87;2.67;;;25.10;16.50;;;;;;6187538;23;20138;-89
2021/05/31 15:38:05;;;;;;;2.37;2.17;;;24.90;17.80;;;;;;6211586;23;20396;-89
2021/05/31 15:40:38;;;;;;;2.73;2.47;;;24.90;17.50;;;;;;6217193;23;20157;-90
2021/05/31 15:43:04;;;;;;;4.20;2.23;;;25.00;17.50;;;;;;6215958;23;20645;-90
2021/05/31 15:45:37;;;;;;;2.77;2.20;;;25.10;17.50;;;;;;6216580;23;20381;-90
2021/05/31 15:48:04;;;;;;;2.87;2.40;;;25.30;17.50;;;;;;6216953;23;20154;-91
2021/05/31 15:50:44;;;;;;;2.50;2.30;;;25.50;17.20;;;;;;6218586;23;20393;-90